Time;durP1;ratioP1;P1;durP2;ratioP2;P2;SDS_P1;SDS_P2;PMS_P1;PMS_P2;Temp;Humidity;BMP_temperature;BMP_pressure;BME280_temperature;BME280_humidity;BME280_pressure;Samples;Min_cycle;Max_cycle;Signal;HPM_P1;HPM_P2
2021/10/14 00:02:05;;;;;;;19.65;12.55;;;3.20;99.90;;;;;;6244541;23;20082;-88
2021/10/14 00:04:53;;;;;;;24.75;12.93;;;3.20;99.90;;;;;;6225078;23;20036;-86
2021/10/14 00:07:40;;;;;;;23.30;12.60;;;3.10;99.90;;;;;;6223444;23;20040;-87
2021/10/14 00:10:28;;;;;;;20.40;12.40;;;3.10;99.90;;;;;;6180191;23;20032;-88
2021/10/14 00:13:16;;;;;;;22.83;13.18;;;3.10;99.90;;;;;;6243691;23;20039;-87
2021/10/14 00:16:07;;;;;;;24.73;14.02;;;3.00;99.90;;;;;;6243272;23;20024;-87
2021/10/14 00:18:58;;;;;;;21.33;14.13;;;3.00;99.90;;;;;;6223183;23;20032;-87
2021/10/14 00:21:50;;;;;;;25.45;13.65;;;3.00;99.90;;;;;;6223203;23;20028;-88
2021/10/14 00:24:38;;;;;;;30.63;14.57;;;3.00;99.90;;;;;;6243040;23;20036;-88
2021/10/14 00:27:27;;;;;;;24.85;14.15;;;3.00;99.90;;;;;;6244965;23;20066;-87
2021/10/14 00:30:15;;;;;;;24.58;14.93;;;3.00;99.90;;;;;;6222484;23;20089;-89
2021/10/14 00:33:05;;;;;;;25.73;14.93;;;3.10;99.90;;;;;;6227067;23;20027;-88
2021/10/14 00:35:54;;;;;;;27.67;15.00;;;3.10;99.90;;;;;;6222868;23;20074;-88
2021/10/14 00:38:42;;;;;;;26.85;14.48;;;3.10;99.90;;;;;;6224962;23;20024;-86
2021/10/14 00:41:30;;;;;;;27.73;14.68;;;3.10;99.90;;;;;;6223815;23;20070;-85
2021/10/14 00:44:18;;;;;;;26.60;14.30;;;3.20;99.90;;;;;;6251092;23;20028;-87
2021/10/14 00:47:05;;;;;;;23.65;14.57;;;3.20;99.90;;;;;;6244774;23;20107;-87
2021/10/14 00:49:54;;;;;;;24.15;13.93;;;3.20;99.90;;;;;;6243334;23;20478;-87
2021/10/14 00:52:44;;;;;;;22.20;12.43;;;3.20;99.90;;;;;;6221287;23;20106;-88
2021/10/14 00:55:32;;;;;;;21.23;13.02;;;3.10;99.90;;;;;;6243923;23;20020;-88
2021/10/14 00:58:19;;;;;;;19.00;11.93;;;3.10;99.90;;;;;;6243514;23;20024;-87
2021/10/14 01:01:06;;;;;;;18.25;11.82;;;3.10;99.90;;;;;;6224926;23;20102;-86
2021/10/14 01:03:54;;;;;;;17.58;11.38;;;3.10;99.90;;;;;;6220762;23;20432;-85
2021/10/14 01:06:43;;;;;;;20.52;11.20;;;3.00;99.90;;;;;;6224479;23;20170;-88
2021/10/14 01:09:33;;;;;;;18.95;10.63;;;3.00;99.90;;;;;;6242580;23;20042;-86
2021/10/14 01:12:22;;;;;;;16.38;10.15;;;2.90;99.90;;;;;;6246010;23;20028;-85
2021/10/14 01:15:38;;;;;;;17.85;10.65;;;2.80;99.90;;;;;;6241743;23;20399;-86
2021/10/14 01:18:25;;;;;;;19.58;11.98;;;2.80;99.90;;;;;;6243733;23;20078;-86
2021/10/14 01:21:13;;;;;;;18.67;11.85;;;2.70;99.90;;;;;;6243054;23;20051;-88
2021/10/14 01:24:01;;;;;;;22.42;11.93;;;2.70;99.90;;;;;;6242934;23;20465;-85
2021/10/14 01:26:49;;;;;;;20.98;11.63;;;2.60;99.90;;;;;;6242140;23;20103;-86
2021/10/14 01:29:36;;;;;;;18.85;12.43;;;2.60;99.90;;;;;;6246689;22;20047;-86
2021/10/14 01:32:23;;;;;;;19.63;11.85;;;2.60;99.90;;;;;;6219339;23;20032;-85
2021/10/14 01:35:10;;;;;;;21.77;13.05;;;2.50;99.90;;;;;;6220910;23;20052;-85
2021/10/14 01:37:58;;;;;;;21.73;11.30;;;2.50;99.90;;;;;;6221941;23;20020;-86
2021/10/14 01:40:45;;;;;;;21.58;12.52;;;2.40;99.90;;;;;;6200059;23;20035;-86
2021/10/14 01:43:33;;;;;;;20.33;12.60;;;2.40;99.90;;;;;;6245198;23;20028;-86
2021/10/14 01:46:21;;;;;;;25.52;14.02;;;2.40;99.90;;;;;;6242941;23;20024;-85
2021/10/14 01:49:11;;;;;;;22.30;13.13;;;2.40;99.90;;;;;;6244966;23;20027;-86
2021/10/14 01:51:58;;;;;;;18.95;13.00;;;2.50;99.90;;;;;;6222092;23;20115;-87
2021/10/14 01:54:46;;;;;;;24.90;12.85;;;2.50;99.90;;;;;;6220004;23;20028;-86
2021/10/14 01:57:33;;;;;;;20.25;12.20;;;2.40;99.90;;;;;;6243587;23;20117;-87
2021/10/14 02:00:20;;;;;;;23.38;12.38;;;2.30;99.90;;;;;;6220496;23;20153;-87
2021/10/14 02:03:08;;;;;;;24.73;12.48;;;2.20;99.90;;;;;;6245163;23;20339;-87
2021/10/14 02:05:56;;;;;;;18.92;11.73;;;2.10;99.90;;;;;;6224552;23;20028;-85
2021/10/14 02:08:44;;;;;;;26.67;12.85;;;2.00;99.90;;;;;;6224256;23;20339;-85
2021/10/14 02:11:34;;;;;;;25.70;12.45;;;1.90;99.90;;;;;;6223062;23;20127;-86
2021/10/14 02:14:21;;;;;;;19.63;11.70;;;1.90;99.90;;;;;;6223425;23;20127;-86
2021/10/14 02:17:14;;;;;;;17.05;11.30;;;1.90;99.90;;;;;;6245393;23;20039;-86
2021/10/14 02:20:01;;;;;;;19.98;11.60;;;1.90;99.90;;;;;;6244592;23;20070;-87
2021/10/14 02:22:51;;;;;;;21.27;12.35;;;1.90;99.90;;;;;;6225629;23;20020;-87
2021/10/14 02:25:38;;;;;;;24.13;12.65;;;1.90;99.90;;;;;;6243859;23;20133;-88
2021/10/14 02:28:26;;;;;;;20.65;12.48;;;1.90;99.90;;;;;;6221685;23;20071;-86
2021/10/14 02:31:13;;;;;;;23.27;13.50;;;2.00;99.90;;;;;;6244324;23;20181;-87
2021/10/14 02:34:00;;;;;;;25.73;13.27;;;1.90;99.90;;;;;;6246346;23;20024;-89
2021/10/14 02:36:47;;;;;;;26.42;13.13;;;1.90;99.90;;;;;;6182441;23;20074;-87
2021/10/14 02:39:35;;;;;;;23.45;14.43;;;1.90;99.90;;;;;;6244381;23;20078;-88
2021/10/14 02:42:23;;;;;;;22.80;12.15;;;1.90;99.90;;;;;;6243385;23;20023;-87
2021/10/14 02:45:10;;;;;;;24.27;11.55;;;1.90;99.90;;;;;;6203444;23;20030;-88
2021/10/14 02:47:58;;;;;;;20.27;11.43;;;1.90;99.90;;;;;;6220956;23;20028;-87
2021/10/14 02:50:45;;;;;;;21.20;11.05;;;1.90;99.90;;;;;;6223722;23;20031;-87
2021/10/14 02:53:32;;;;;;;20.67;11.02;;;1.90;99.90;;;;;;6201832;23;20331;-88
2021/10/14 02:56:20;;;;;;;32.90;12.57;;;1.90;99.90;;;;;;6223541;23;20423;-88
2021/10/14 02:59:07;;;;;;;21.23;12.27;;;1.80;99.90;;;;;;6202725;23;20133;-86
2021/10/14 03:01:55;;;;;;;23.95;12.43;;;1.80;99.90;;;;;;6243618;23;20393;-86
2021/10/14 03:04:43;;;;;;;25.65;14.70;;;1.80;99.90;;;;;;6244570;23;20086;-87
2021/10/14 03:07:31;;;;;;;23.40;14.38;;;1.90;99.90;;;;;;6224013;23;20035;-86
2021/10/14 03:10:18;;;;;;;22.95;13.57;;;1.90;99.90;;;;;;6201550;23;20442;-86
2021/10/14 03:13:05;;;;;;;24.38;14.55;;;2.00;99.90;;;;;;6243383;23;20078;-86
2021/10/14 03:15:53;;;;;;;22.33;14.30;;;2.00;99.90;;;;;;6220167;23;20074;-87
2021/10/14 03:18:40;;;;;;;22.88;14.00;;;2.00;99.90;;;;;;6244691;23;20094;-87
2021/10/14 03:21:27;;;;;;;25.88;14.75;;;2.00;99.90;;;;;;6224720;23;20343;-87
2021/10/14 03:24:15;;;;;;;25.88;13.90;;;2.00;99.90;;;;;;6222632;23;20418;-87
2021/10/14 03:27:02;;;;;;;21.10;13.52;;;1.90;99.90;;;;;;6224302;23;20048;-87
2021/10/14 03:29:50;;;;;;;22.23;13.90;;;1.80;99.90;;;;;;6220675;23;20311;-87
2021/10/14 03:32:39;;;;;;;22.33;13.43;;;1.80;99.90;;;;;;6244368;23;20451;-87
2021/10/14 03:35:27;;;;;;;20.45;13.23;;;1.70;99.90;;;;;;6245957;23;20460;-87
2021/10/14 03:38:16;;;;;;;24.55;13.88;;;1.80;99.90;;;;;;6222476;23;20035;-88
2021/10/14 03:41:03;;;;;;;23.20;13.27;;;1.80;99.90;;;;;;6222063;23;20031;-88
2021/10/14 03:43:53;;;;;;;21.10;13.40;;;1.80;99.90;;;;;;6221685;23;20024;-86
2021/10/14 03:46:40;;;;;;;25.63;13.90;;;1.80;99.90;;;;;;6221024;23;20047;-89
2021/10/14 03:49:28;;;;;;;21.75;12.98;;;1.80;99.90;;;;;;6204095;23;20024;-85
2021/10/14 03:52:15;;;;;;;27.63;13.82;;;1.90;99.90;;;;;;6242088;23;20109;-87
2021/10/14 03:55:03;;;;;;;22.55;14.18;;;1.90;99.90;;;;;;6245778;23;20479;-85
2021/10/14 03:57:50;;;;;;;22.60;13.07;;;1.80;99.90;;;;;;6242397;23;20044;-87
2021/10/14 04:00:40;;;;;;;18.67;12.15;;;1.80;99.90;;;;;;6245986;23;20024;-86
2021/10/14 04:03:43;;;;;;;19.02;11.82;;;1.70;99.90;;;;;;6220333;23;20292;-85
2021/10/14 04:06:32;;;;;;;23.48;11.52;;;1.70;99.90;;;;;;6221686;23;20028;-86
2021/10/14 04:09:19;;;;;;;18.60;11.43;;;1.70;99.90;;;;;;6221599;23;20028;-86
2021/10/14 04:12:07;;;;;;;21.13;11.55;;;1.70;99.90;;;;;;6199732;23;20032;-85
2021/10/14 04:14:55;;;;;;;18.27;10.88;;;1.70;99.90;;;;;;6243323;23;20476;-87
2021/10/14 04:17:43;;;;;;;25.02;11.65;;;1.70;99.90;;;;;;6242542;23;20280;-86
2021/10/14 04:20:30;;;;;;;18.35;11.25;;;1.70;99.90;;;;;;6243204;23;20047;-87
2021/10/14 04:23:22;;;;;;;19.85;11.73;;;1.70;99.90;;;;;;6243484;23;20408;-85
2021/10/14 04:26:13;;;;;;;17.83;11.48;;;1.70;99.90;;;;;;6221755;23;20053;-86
2021/10/14 04:29:00;;;;;;;20.38;11.15;;;1.70;99.90;;;;;;6242758;23;20039;-87
2021/10/14 04:31:48;;;;;;;20.70;10.30;;;1.70;99.90;;;;;;6221062;23;20321;-87
2021/10/14 04:34:36;;;;;;;21.70;10.38;;;1.70;99.90;;;;;;6243845;23;20151;-86
2021/10/14 04:37:23;;;;;;;18.20;11.50;;;1.70;99.90;;;;;;6244080;23;20028;-86
2021/10/14 04:40:13;;;;;;;17.45;11.32;;;1.70;99.90;;;;;;6242921;23;20101;-85
2021/10/14 04:43:01;;;;;;;19.58;9.98;;;1.80;99.90;;;;;;6246045;23;20017;-85
2021/10/14 04:45:49;;;;;;;17.52;10.48;;;1.80;99.90;;;;;;6242539;23;20035;-85
2021/10/14 04:48:41;;;;;;;18.63;10.63;;;1.90;99.90;;;;;;6222189;23;20028;-86
2021/10/14 04:51:28;;;;;;;21.33;11.40;;;2.00;99.90;;;;;;6248558;23;20111;-87
2021/10/14 04:54:15;;;;;;;22.38;11.10;;;2.10;99.90;;;;;;6229356;23;20367;-87
2021/10/14 04:57:03;;;;;;;17.80;11.32;;;2.20;99.90;;;;;;6232777;23;20020;-86
2021/10/14 04:59:52;;;;;;;21.35;10.88;;;2.30;99.90;;;;;;6252430;23;20036;-82
2021/10/14 05:02:39;;;;;;;22.33;11.25;;;2.40;99.90;;;;;;6223842;23;20020;-89
2021/10/14 05:05:27;;;;;;;23.77;11.20;;;2.40;99.90;;;;;;6204219;23;20315;-90
2021/10/14 05:08:14;;;;;;;21.80;11.95;;;2.50;99.90;;;;;;6245253;23;20043;-88
2021/10/14 05:11:02;;;;;;;20.83;11.60;;;2.60;99.90;;;;;;6242797;23;20418;-87
2021/10/14 05:13:57;;;;;;;17.45;10.23;;;2.60;99.90;;;;;;6224516;23;20096;-90
2021/10/14 05:19:57;;;;;;;22.38;11.90;;;2.60;99.90;;;;;;6214434;23;20028;-88
2021/10/14 05:22:44;;;;;;;20.95;11.80;;;2.60;99.90;;;;;;6173550;23;20293;-90
2021/10/14 05:25:32;;;;;;;18.67;10.35;;;2.70;99.90;;;;;;6170616;23;20024;-87
2021/10/14 05:28:21;;;;;;;21.65;11.27;;;2.80;99.90;;;;;;6172340;23;20083;-89
2021/10/14 05:31:08;;;;;;;19.98;10.63;;;2.90;99.90;;;;;;6192537;23;20371;-89
2021/10/14 05:33:56;;;;;;;15.50;9.80;;;3.00;99.90;;;;;;6213809;23;20055;-89
2021/10/14 05:36:44;;;;;;;16.15;8.65;;;3.10;99.90;;;;;;6194275;23;20055;-88
2021/10/14 05:39:31;;;;;;;17.63;8.77;;;3.10;99.90;;;;;;6194410;23;20047;-87
2021/10/14 05:42:22;;;;;;;20.73;9.43;;;3.20;99.90;;;;;;6212930;23;20060;-87
2021/10/14 05:45:13;;;;;;;14.80;9.52;;;3.20;99.90;;;;;;6193537;23;20043;-86
2021/10/14 05:48:01;;;;;;;13.15;8.27;;;3.20;99.90;;;;;;6211767;23;20073;-88
2021/10/14 05:50:51;;;;;;;14.93;8.95;;;3.20;99.90;;;;;;6216206;23;20020;-86
2021/10/14 05:53:38;;;;;;;12.65;7.78;;;3.10;99.90;;;;;;6215624;23;20039;-87
2021/10/14 05:56:27;;;;;;;16.15;8.43;;;3.10;99.90;;;;;;6191767;23;20162;-86
2021/10/14 05:59:16;;;;;;;15.70;8.25;;;3.10;99.90;;;;;;6192896;23;20080;-85
2021/10/14 06:02:03;;;;;;;14.63;8.48;;;3.10;99.90;;;;;;6192749;23;20044;-85
2021/10/14 06:04:57;;;;;;;14.82;8.00;;;3.10;99.90;;;;;;6213910;23;20488;-87
2021/10/14 06:07:44;;;;;;;;;;;3.00;99.90;;;;;;6193229;23;20309;-85
2021/10/14 06:10:32;;;;;;;13.07;8.05;;;3.00;99.90;;;;;;6216259;23;19915;-85
2021/10/14 06:13:36;;;;;;;13.65;8.40;;;3.00;99.90;;;;;;6212193;23;20032;-86
2021/10/14 06:16:27;;;;;;;11.80;7.00;;;3.10;99.90;;;;;;6222022;23;20024;-88
2021/10/14 06:19:14;;;;;;;13.02;7.53;;;3.10;99.90;;;;;;6223247;23;20111;-86
2021/10/14 06:22:03;;;;;;;16.75;7.65;;;3.00;99.90;;;;;;6244584;23;20134;-85
2021/10/14 06:24:51;;;;;;;11.20;7.57;;;3.00;99.90;;;;;;6202090;23;20039;-86
2021/10/14 06:27:38;;;;;;;14.05;7.68;;;3.10;99.90;;;;;;6201439;23;20028;-84
2021/10/14 06:30:25;;;;;;;9.43;7.65;;;3.10;99.90;;;;;;6220866;23;20032;-87
2021/10/14 06:33:13;;;;;;;11.07;7.72;;;3.10;99.90;;;;;;6244997;23;20036;-84
2021/10/14 06:36:04;;;;;;;11.82;7.53;;;3.20;99.90;;;;;;6243524;23;20473;-87
2021/10/14 06:38:51;;;;;;;12.55;8.00;;;3.20;99.90;;;;;;6223876;23;20024;-86
2021/10/14 06:41:41;;;;;;;10.25;7.47;;;3.40;99.90;;;;;;6220332;23;20032;-86
2021/10/14 06:44:28;;;;;;;13.85;7.03;;;3.60;99.90;;;;;;6222012;23;20028;-86
2021/10/14 06:47:16;;;;;;;11.68;6.88;;;3.70;99.90;;;;;;6223507;23;20028;-86
2021/10/14 06:50:04;;;;;;;13.95;6.00;;;3.70;99.90;;;;;;6242212;23;20050;-84
2021/10/14 06:52:54;;;;;;;17.63;7.95;;;3.80;99.90;;;;;;6241991;23;20101;-85
2021/10/14 06:55:42;;;;;;;11.52;6.75;;;3.90;99.90;;;;;;6221924;23;20423;-85
2021/10/14 06:58:29;;;;;;;10.05;6.15;;;4.00;99.90;;;;;;6245152;23;20127;-86
2021/10/14 07:01:16;;;;;;;12.88;6.00;;;4.10;99.90;;;;;;6243741;23;20032;-89
2021/10/14 07:04:05;;;;;;;8.48;5.47;;;4.20;99.90;;;;;;6223253;23;20045;-86
2021/10/14 07:06:57;;;;;;;9.48;5.50;;;4.30;99.90;;;;;;6223991;23;20028;-90
2021/10/14 07:10:11;;;;;;;6.88;4.90;;;4.60;99.90;;;;;;6246770;22;20320;-90
2021/10/14 07:13:04;;;;;;;7.55;5.05;;;4.80;99.90;;;;;;6221491;23;20054;-88
2021/10/14 07:16:05;;;;;;;12.48;4.80;;;5.10;99.90;;;;;;6246843;23;20024;-87
2021/10/14 07:18:54;;;;;;;6.95;4.57;;;5.50;99.90;;;;;;6223791;23;20031;-87
2021/10/14 07:21:48;;;;;;;8.18;4.10;;;6.00;99.90;;;;;;6205032;23;20249;-88
2021/10/14 07:24:36;;;;;;;5.28;3.90;;;6.60;99.90;;;;;;6222147;23;20477;-88
2021/10/14 07:27:24;;;;;;;7.05;4.03;;;6.80;99.90;;;;;;6243573;23;20020;-88
2021/10/14 07:30:14;;;;;;;6.57;4.00;;;6.70;99.90;;;;;;6223534;23;20117;-86
2021/10/14 07:33:04;;;;;;;12.85;4.75;;;6.70;99.90;;;;;;6208425;23;20705;-86
2021/10/14 07:35:52;;;;;;;8.00;4.10;;;6.70;99.90;;;;;;6243244;23;20673;-86
2021/10/14 07:38:42;;;;;;;15.90;7.00;;;6.90;99.90;;;;;;6222719;23;20154;-87
2021/10/14 07:41:31;;;;;;;12.88;6.05;;;7.10;99.90;;;;;;6220807;23;20308;-87
2021/10/14 07:44:20;;;;;;;14.88;5.15;;;7.00;99.90;;;;;;6242731;23;20036;-87
2021/10/14 07:47:07;;;;;;;7.68;4.05;;;7.00;99.90;;;;;;6222303;23;20067;-86
2021/10/14 07:49:54;;;;;;;7.95;3.65;;;7.10;99.90;;;;;;6224749;23;20450;-86
2021/10/14 07:52:44;;;;;;;5.40;3.47;;;7.30;99.90;;;;;;6241164;23;20027;-86
2021/10/14 07:55:33;;;;;;;8.20;3.72;;;7.60;99.90;;;;;;6241616;23;20020;-86
2021/10/14 07:58:21;;;;;;;5.20;3.28;;;7.70;99.90;;;;;;6244988;23;20031;-87
2021/10/14 08:01:11;;;;;;;8.05;3.40;;;7.90;99.90;;;;;;6224192;23;20024;-86
2021/10/14 08:04:01;;;;;;;9.00;3.45;;;8.00;99.90;;;;;;6221144;23;20043;-86
2021/10/14 08:06:48;;;;;;;4.47;3.47;;;8.20;99.90;;;;;;6243777;23;20090;-88
2021/10/14 08:09:38;;;;;;;9.25;3.75;;;8.30;99.90;;;;;;6243221;23;20032;-87
2021/10/14 08:12:26;;;;;;;4.45;3.25;;;8.20;99.90;;;;;;6183550;23;20028;-87
2021/10/14 08:15:13;;;;;;;7.35;3.60;;;8.20;99.90;;;;;;6221869;23;20035;-87
2021/10/14 08:18:00;;;;;;;9.45;4.07;;;8.20;99.90;;;;;;6245674;23;20036;-86
2021/10/14 08:20:49;;;;;;;6.55;3.67;;;8.30;99.90;;;;;;6181537;23;20131;-85
2021/10/14 08:23:37;;;;;;;8.23;3.90;;;8.40;99.90;;;;;;6244349;23;20154;-89
2021/10/14 08:26:27;;;;;;;7.35;4.07;;;8.70;99.90;;;;;;6223545;23;20100;-91
2021/10/14 08:29:17;;;;;;;9.02;3.80;;;9.00;99.90;;;;;;6199793;23;20031;-87
2021/10/14 08:32:04;;;;;;;5.03;3.47;;;9.00;99.90;;;;;;6242650;23;20020;-87
2021/10/14 08:34:52;;;;;;;5.10;3.20;;;9.40;99.90;;;;;;6221346;23;20020;-87
2021/10/14 08:37:39;;;;;;;4.28;2.78;;;9.80;99.90;;;;;;6244679;23;20028;-89
2021/10/14 08:40:27;;;;;;;6.55;3.17;;;10.10;99.90;;;;;;6242258;23;20100;-86
2021/10/14 08:43:18;;;;;;;5.72;3.75;;;10.30;99.90;;;;;;6241440;23;20028;-86
2021/10/14 08:46:05;;;;;;;5.43;3.05;;;10.10;99.90;;;;;;6223151;23;20024;-86
2021/10/14 08:48:53;;;;;;;4.35;2.90;;;10.10;99.90;;;;;;6222640;23;20446;-85
2021/10/14 08:51:41;;;;;;;7.35;3.35;;;10.10;99.90;;;;;;6241462;23;20023;-85
2021/10/14 08:54:30;;;;;;;6.53;3.47;;;10.20;99.90;;;;;;6241877;23;20109;-85
2021/10/14 08:57:18;;;;;;;7.80;3.60;;;10.40;99.90;;;;;;6221930;23;20121;-86
2021/10/14 09:00:05;;;;;;;5.05;2.95;;;10.60;99.90;;;;;;6223425;23;20055;-85
2021/10/14 09:02:53;;;;;;;5.18;2.75;;;11.20;99.90;;;;;;6245106;23;20127;-88
2021/10/14 09:05:46;;;;;;;4.45;2.65;;;12.10;99.90;;;;;;6241704;23;20043;-87
2021/10/14 09:08:37;;;;;;;6.95;3.13;;;13.00;99.80;;;;;;6243414;23;20370;-87
2021/10/14 09:11:31;;;;;;;6.40;2.80;;;14.30;96.00;;;;;;6242451;23;20485;-89
2021/10/14 09:14:20;;;;;;;3.95;2.35;;;14.90;90.10;;;;;;6242373;23;20414;-87
2021/10/14 09:17:07;;;;;;;6.65;2.55;;;15.00;82.70;;;;;;6243944;23;20155;-90
2021/10/14 09:19:54;;;;;;;6.15;2.50;;;14.60;81.60;;;;;;6240860;23;20039;-89
2021/10/14 09:22:55;;;;;;;4.43;2.42;;;15.00;81.30;;;;;;6241853;23;20024;-86
2021/10/14 09:25:45;;;;;;;4.85;2.03;;;15.30;79.10;;;;;;6243669;23;20396;-85
2021/10/14 09:28:33;;;;;;;4.88;2.45;;;15.90;73.70;;;;;;6241362;23;20036;-88
2021/10/14 09:31:20;;;;;;;3.95;2.33;;;16.10;71.10;;;;;;6241017;23;20031;-87
2021/10/14 09:34:25;;;;;;;3.78;2.00;;;16.20;70.30;;;;;;6241291;23;20115;-87
2021/10/14 09:37:16;;;;;;;7.00;1.90;;;16.30;67.50;;;;;;6219810;23;20047;-86
2021/10/14 09:40:11;;;;;;;3.85;2.08;;;16.60;67.40;;;;;;6240692;23;20051;-86
2021/10/14 09:43:01;;;;;;;3.20;1.63;;;17.10;65.70;;;;;;6243862;23;20423;-89
2021/10/14 09:45:49;;;;;;;2.28;1.60;;;17.70;64.90;;;;;;6220609;23;20093;-92
2021/10/14 09:48:41;;;;;;;4.25;1.73;;;18.90;60.70;;;;;;6222727;23;20193;-91
2021/10/14 09:51:31;;;;;;;4.20;2.25;;;18.90;58.80;;;;;;6243296;23;20031;-91
2021/10/14 09:54:18;;;;;;;3.45;1.70;;;18.60;58.10;;;;;;6202614;23;20358;-88
2021/10/14 09:57:05;;;;;;;5.57;2.08;;;19.00;59.60;;;;;;6241734;23;20083;-88
2021/10/14 09:59:52;;;;;;;2.78;1.80;;;18.50;56.50;;;;;;6244479;23;20110;-88
2021/10/14 10:02:43;;;;;;;6.10;1.98;;;17.40;59.10;;;;;;6241913;23;20444;-90
2021/10/14 10:05:31;;;;;;;4.57;2.35;;;17.40;60.00;;;;;;6244015;23;20100;-87
2021/10/14 10:08:32;;;;;;;6.13;2.05;;;17.60;60.50;;;;;;6223535;23;20345;-89
2021/10/14 10:11:24;;;;;;;5.28;1.90;;;18.30;58.30;;;;;;6246078;23;20418;-91
2021/10/14 10:14:12;;;;;;;3.75;1.50;;;18.70;57.10;;;;;;6257311;22;20039;-88
2021/10/14 10:17:14;;;;;;;4.72;2.05;;;18.70;56.40;;;;;;6238588;23;20059;-88
2021/10/14 10:20:07;;;;;;;3.85;1.63;;;18.80;54.90;;;;;;6244296;23;20020;-88
2021/10/14 10:22:55;;;;;;;3.55;1.85;;;18.60;56.80;;;;;;6245711;22;20020;-87
2021/10/14 10:25:42;;;;;;;3.55;1.60;;;18.80;54.60;;;;;;6189305;23;20036;-87
2021/10/14 10:28:38;;;;;;;4.18;1.92;;;19.10;54.40;;;;;;6252403;23;20035;-89
2021/10/14 10:31:46;;;;;;;5.97;1.73;;;19.80;52.30;;;;;;6223484;23;20096;-89
2021/10/14 10:34:51;;;;;;;3.22;1.83;;;19.30;53.50;;;;;;6245359;23;20031;-89
2021/10/14 10:37:46;;;;;;;3.53;1.98;;;18.80;53.40;;;;;;6244578;23;20020;-87
2021/10/14 10:40:34;;;;;;;4.70;2.03;;;19.60;55.50;;;;;;6225996;23;20058;-89
2021/10/14 10:43:29;;;;;;;5.05;2.00;;;20.50;50.80;;;;;;6224287;23;20047;-90
2021/10/14 10:46:29;;;;;;;4.38;2.00;;;20.70;51.00;;;;;;6245736;23;20063;-91
2021/10/14 10:49:30;;;;;;;3.13;1.60;;;20.10;51.70;;;;;;6227921;23;20043;-91
2021/10/14 10:52:35;;;;;;;3.47;1.65;;;21.00;49.10;;;;;;6247541;23;20028;-91
2021/10/14 10:55:22;;;;;;;2.97;1.50;;;21.60;47.90;;;;;;6248292;23;20024;-91
2021/10/14 10:58:13;;;;;;;3.97;1.80;;;22.30;47.00;;;;;;6224576;23;20024;-90
2021/10/14 11:01:03;;;;;;;3.15;1.80;;;21.90;47.40;;;;;;6245016;23;20031;-90
2021/10/14 11:04:01;;;;;;;4.88;1.67;;;21.40;48.80;;;;;;6246439;23;20035;-91
2021/10/14 11:06:52;;;;;;;4.50;1.70;;;21.10;49.20;;;;;;6247643;22;20078;-90
2021/10/14 11:09:44;;;;;;;3.17;2.15;;;20.80;49.50;;;;;;6226713;23;20098;-91
2021/10/14 11:12:31;;;;;;;4.47;2.17;;;19.70;49.70;;;;;;6246979;23;20082;-89
2021/10/14 11:15:19;;;;;;;3.03;1.85;;;18.60;52.70;;;;;;6246679;23;20035;-90
2021/10/14 11:18:07;;;;;;;6.32;2.20;;;18.20;55.10;;;;;;6244226;23;20502;-90
2021/10/14 11:21:07;;;;;;;5.70;2.47;;;18.30;55.50;;;;;;6226274;23;20034;-89
2021/10/14 11:23:57;;;;;;;5.28;1.90;;;18.20;55.10;;;;;;6243896;23;20093;-91
2021/10/14 11:26:47;;;;;;;3.58;1.75;;;19.40;53.40;;;;;;6244719;23;20424;-91
2021/10/14 11:29:37;;;;;;;2.55;1.80;;;20.30;51.10;;;;;;6224656;23;20032;-90
2021/10/14 11:32:33;;;;;;;4.38;2.15;;;21.60;51.10;;;;;;6224764;23;20023;-89
2021/10/14 11:35:23;;;;;;;4.22;2.10;;;23.10;48.60;;;;;;6243428;23;20331;-88
2021/10/14 11:38:12;;;;;;;3.60;2.33;;;24.60;45.00;;;;;;6223023;23;20067;-91
2021/10/14 11:41:03;;;;;;;3.67;1.70;;;25.50;45.40;;;;;;6243699;23;20024;-89
2021/10/14 11:43:57;;;;;;;4.30;1.90;;;26.00;40.30;;;;;;6224233;23;20070;-89
2021/10/14 11:46:48;;;;;;;3.72;2.15;;;24.80;41.80;;;;;;6243963;23;20027;-88
2021/10/14 11:49:35;;;;;;;4.40;1.60;;;23.90;43.80;;;;;;6246162;23;20039;-90
2021/10/14 11:52:22;;;;;;;6.40;2.80;;;24.70;43.00;;;;;;6244058;23;20028;-90
2021/10/14 11:55:10;;;;;;;5.80;2.50;;;25.90;40.10;;;;;;6203974;23;20074;-88
2021/10/14 11:58:01;;;;;;;3.88;2.58;;;24.70;41.30;;;;;;6241575;23;20431;-89
2021/10/14 12:00:51;;;;;;;4.70;2.63;;;22.90;44.90;;;;;;6244951;23;20111;-91
2021/10/14 12:03:52;;;;;;;5.72;2.80;;;21.40;47.20;;;;;;6247700;23;20087;-93
2021/10/14 12:06:53;;;;;;;4.97;2.33;;;20.40;52.60;;;;;;6247505;23;20036;-91
2021/10/14 12:09:57;;;;;;;4.13;2.25;;;20.80;50.70;;;;;;6225295;23;20028;-91
2021/10/14 12:13:09;;;;;;;3.95;2.20;;;21.80;48.00;;;;;;6224493;23;20123;-92
2021/10/14 12:16:28;;;;;;;3.85;2.10;;;22.00;47.20;;;;;;6223436;23;20043;-91
2021/10/14 12:19:18;;;;;;;4.93;2.88;;;22.40;47.50;;;;;;6226059;23;20099;-91
2021/10/14 12:22:13;;;;;;;6.90;3.00;;;23.50;46.30;;;;;;6244730;23;20027;-90
2021/10/14 12:25:23;;;;;;;4.43;2.90;;;23.70;44.40;;;;;;6245184;23;20024;-92
2021/10/14 12:28:23;;;;;;;6.03;2.65;;;23.40;46.00;;;;;;6248100;22;20030;-89
2021/10/14 12:31:13;;;;;;;7.55;2.50;;;24.60;43.30;;;;;;6246747;23;20034;-90
2021/10/14 12:34:00;;;;;;;5.07;2.38;;;24.30;42.60;;;;;;6224303;23;20604;-90
2021/10/14 12:36:50;;;;;;;4.57;2.20;;;23.60;43.90;;;;;;6244927;23;20099;-89
2021/10/14 12:39:47;;;;;;;3.65;2.53;;;23.10;45.60;;;;;;6245464;23;20132;-87
2021/10/14 12:42:49;;;;;;;6.97;2.60;;;23.20;45.10;;;;;;6246823;23;20035;-89
2021/10/14 12:48:47;;;;;;;3.15;2.00;;;25.20;41.40;;;;;;6247820;23;20023;-89
2021/10/14 12:51:42;;;;;;;4.55;2.35;;;25.70;41.40;;;;;;6249091;23;20024;-90
2021/10/14 12:54:35;;;;;;;5.78;2.35;;;26.40;39.50;;;;;;6246797;23;20032;-88
2021/10/14 12:57:22;;;;;;;5.13;2.60;;;25.90;40.20;;;;;;6207747;23;20035;-89
2021/10/14 13:00:12;;;;;;;5.10;2.55;;;25.40;40.40;;;;;;6184429;23;20020;-91
2021/10/14 13:03:01;;;;;;;4.15;2.20;;;24.90;43.20;;;;;;6227560;23;20166;-87
2021/10/14 13:05:48;;;;;;;4.22;2.10;;;25.50;42.10;;;;;;6254219;23;20104;-89
2021/10/14 13:08:41;;;;;;;5.53;2.17;;;26.10;41.00;;;;;;6237124;23;20028;-90
2021/10/14 13:11:33;;;;;;;3.70;2.30;;;26.20;40.80;;;;;;6227650;23;20106;-91
2021/10/14 13:14:38;;;;;;;2.95;1.98;;;26.80;39.80;;;;;;6253447;23;20087;-92
2021/10/14 13:22:15;;;;;;;3.40;1.83;;;28.00;37.40;;;;;;6130180;23;20319;-91
2021/10/14 13:25:37;;;;;;;3.72;2.03;;;28.10;37.00;;;;;;6127975;23;20029;-91
2021/10/14 13:29:03;;;;;;;;;;;;;;;;;;;;;
2021/10/14 13:32:28;;;;;;;;;;;;;;;;;;;;;
2021/10/14 13:35:20;;;;;;;4.28;2.28;;;26.20;39.20;;;;;;6128772;23;20110;-90
2021/10/14 13:42:20;;;;;;;2.70;1.60;;;27.60;37.50;;;;;;6138613;23;20039;-91
2021/10/14 13:46:06;;;;;;;;;;;;;;;;;;;;;
2021/10/14 14:10:28;;;;;;;8.10;2.08;;;27.30;37.50;;;;;;6047442;23;20209;-89
2021/10/14 14:14:26;;;;;;;;;;;;;;;;;;;;;
2021/10/14 14:18:04;;;;;;;4.38;1.65;;;25.60;38.60;;;;;;6124678;23;20120;-92
2021/10/14 14:21:16;;;;;;;5.43;1.95;;;25.60;40.10;;;;;;6041962;23;20057;-90
2021/10/14 14:24:50;;;;;;;4.10;1.90;;;25.10;41.00;;;;;;6024120;23;20027;-91
2021/10/14 14:27:41;;;;;;;4.32;2.20;;;24.80;41.00;;;;;;6035866;23;20438;-90
2021/10/14 14:30:41;;;;;;;4.05;1.98;;;24.30;42.70;;;;;;6017136;23;20042;-92
2021/10/14 14:34:14;;;;;;;;;;;;;;;;;;;;;
2021/10/14 14:37:57;;;;;;;4.45;1.80;;;25.60;40.60;;;;;;6042490;23;20042;-94
2021/10/14 14:42:07;;;;;;;;;;;;;;;;;;;;;
2021/10/14 14:50:30;;;;;;;;;;;;;;;;;;;;;
2021/10/14 14:54:07;;;;;;;;;;;;;;;;;;;;;
2021/10/14 15:01:44;;;;;;;;;;;;;;;;;;;;;
2021/10/14 15:05:45;;;;;;;;;;;;;;;;;;;;;
2021/10/14 15:10:00;;;;;;;5.60;2.00;;;23.10;44.10;;;;;;5870439;24;20044;-89
2021/10/14 15:20:28;;;;;;;2.65;1.25;;;24.00;42.10;;;;;;5751478;24;20027;-90
2021/10/14 15:23:26;;;;;;;;;;;;;;;;;;;;;
2021/10/14 15:26:29;;;;;;;4.25;2.00;;;23.20;44.00;;;;;;5939445;23;20038;-90
2021/10/14 15:29:42;;;;;;;3.38;1.83;;;22.20;46.20;;;;;;6021701;23;20036;-88
2021/10/14 15:33:07;;;;;;;;;;;;;;;;;;;;;
2021/10/14 15:36:40;;;;;;;4.30;1.65;;;21.50;47.80;;;;;;5948428;24;20118;-91
2021/10/14 15:39:38;;;;;;;4.85;2.40;;;21.00;48.60;;;;;;5947345;24;20017;-90
2021/10/14 15:42:31;;;;;;;6.82;1.95;;;20.80;49.50;;;;;;6050082;23;20017;-90
2021/10/14 15:45:20;;;;;;;8.85;2.13;;;20.70;49.90;;;;;;6139222;23;20021;-92
2021/10/14 15:48:13;;;;;;;4.45;1.65;;;20.70;49.70;;;;;;6160455;23;20041;-91
2021/10/14 15:51:31;;;;;;;3.53;1.90;;;20.40;51.10;;;;;;6178700;23;20025;-91
2021/10/14 15:54:53;;;;;;;;;;;;;;;;;;;;;
2021/10/14 15:58:21;;;;;;;4.93;2.10;;;19.60;52.40;;;;;;6031610;23;20079;-90
2021/10/14 16:01:35;;;;;;;6.80;2.55;;;18.90;54.30;;;;;;6013903;23;20040;-91
2021/10/14 16:04:45;;;;;;;6.53;2.38;;;17.80;56.90;;;;;;5901570;24;20102;-91
2021/10/14 16:07:35;;;;;;;7.10;2.30;;;16.40;62.20;;;;;;5882294;24;20059;-90
2021/10/14 16:10:34;;;;;;;8.27;2.75;;;15.50;65.50;;;;;;5900628;24;20030;-90
2021/10/14 16:13:23;;;;;;;8.52;2.80;;;14.80;68.00;;;;;;5900893;24;20077;-92